Time;durP1;ratioP1;P1;durP2;ratioP2;P2;SDS_P1;SDS_P2;PMS_P1;PMS_P2;Temp;Humidity;BMP_temperature;BMP_pressure;BME280_temperature;BME280_humidity;BME280_pressure;Samples;Min_cycle;Max_cycle;Signal;HPM_P1;HPM_P2
2023/12/15 00:02:15;;;;;;;7.27;3.33;;;9.50;99.90;;;;;;5010110;28;20570;-18
2023/12/15 00:04:41;;;;;;;6.60;3.17;;;9.50;99.90;;;;;;5010090;28;20035;-18
2023/12/15 00:07:07;;;;;;;6.37;3.10;;;9.50;99.90;;;;;;5001509;28;20120;-21
2023/12/15 00:09:33;;;;;;;7.55;3.58;;;9.50;99.90;;;;;;4988427;28;20039;-21
2023/12/15 00:11:59;;;;;;;7.03;3.40;;;9.50;99.90;;;;;;5015568;28;20051;-20
2023/12/15 00:14:24;;;;;;;8.20;3.93;;;9.50;99.90;;;;;;5022219;28;20025;-21
2023/12/15 00:16:50;;;;;;;9.88;4.53;;;9.60;99.90;;;;;;5013721;28;20025;-20
2023/12/15 00:19:16;;;;;;;7.73;4.10;;;9.60;99.90;;;;;;5027229;28;21579;-21
2023/12/15 00:21:41;;;;;;;7.70;3.60;;;9.60;99.90;;;;;;5017698;28;20036;-21
2023/12/15 00:24:08;;;;;;;7.97;3.83;;;9.50;99.90;;;;;;5015076;28;20274;-21
2023/12/15 00:26:35;;;;;;;8.25;3.67;;;9.60;99.90;;;;;;5019480;28;20043;-21
2023/12/15 00:29:03;;;;;;;9.90;4.07;;;9.60;99.90;;;;;;5017002;28;20060;-21
2023/12/15 00:31:29;;;;;;;6.37;3.40;;;9.60;99.90;;;;;;4978540;28;20025;-21
2023/12/15 00:33:55;;;;;;;8.55;3.90;;;9.60;99.90;;;;;;5008742;28;20175;-20
2023/12/15 00:36:21;;;;;;;9.55;4.18;;;9.60;99.90;;;;;;5017219;28;20020;-21
2023/12/15 00:38:47;;;;;;;9.18;4.15;;;9.60;99.90;;;;;;5022447;28;20410;-20
2023/12/15 00:41:13;;;;;;;9.03;3.90;;;9.60;99.90;;;;;;5017033;28;20029;-20
2023/12/15 00:43:38;;;;;;;8.93;4.35;;;9.60;99.90;;;;;;5005486;28;20845;-21
2023/12/15 00:46:04;;;;;;;9.27;4.00;;;9.60;99.90;;;;;;5000764;28;20036;-21
2023/12/15 00:48:31;;;;;;;8.00;3.90;;;9.60;99.90;;;;;;5029862;28;20079;-20
2023/12/15 00:50:57;;;;;;;10.13;4.22;;;9.60;99.90;;;;;;5013266;28;20036;-21
2023/12/15 00:53:23;;;;;;;10.10;4.07;;;9.60;99.90;;;;;;5026637;28;20049;-21
2023/12/15 00:55:49;;;;;;;8.55;3.70;;;9.60;99.90;;;;;;5001027;28;20021;-20
2023/12/15 00:58:15;;;;;;;7.65;3.75;;;9.60;99.90;;;;;;5004175;28;20112;-21
2023/12/15 01:00:41;;;;;;;7.43;3.70;;;9.60;99.90;;;;;;5009779;28;20022;-20
2023/12/15 01:03:07;;;;;;;8.50;3.90;;;9.60;99.90;;;;;;5009222;28;20469;-21
2023/12/15 01:05:32;;;;;;;7.75;3.90;;;9.60;99.90;;;;;;5016661;28;20018;-20
2023/12/15 01:07:58;;;;;;;9.63;4.47;;;9.60;99.90;;;;;;5016001;28;20667;-20
2023/12/15 01:10:24;;;;;;;9.32;4.15;;;9.60;99.90;;;;;;5000641;28;20024;-20
2023/12/15 01:12:49;;;;;;;10.13;4.13;;;9.60;99.90;;;;;;5005838;28;20666;-20
2023/12/15 01:15:16;;;;;;;8.02;4.25;;;11.20;99.90;;;;;;5025469;28;20037;-20
2023/12/15 01:17:41;;;;;;;8.23;3.88;;;9.60;99.90;;;;;;4986212;28;20037;-20
2023/12/15 01:20:10;;;;;;;9.27;3.53;;;9.60;99.90;;;;;;5022225;28;20249;-20
2023/12/15 01:22:36;;;;;;;9.05;4.13;;;9.60;99.90;;;;;;5016781;28;20032;-20
2023/12/15 01:25:02;;;;;;;8.70;4.07;;;9.60;99.90;;;;;;5014138;28;20586;-20
2023/12/15 01:27:27;;;;;;;8.37;3.80;;;9.60;99.90;;;;;;5014941;28;20152;-20
2023/12/15 01:29:53;;;;;;;8.63;4.15;;;9.60;99.90;;;;;;4986239;28;20022;-20
2023/12/15 01:32:19;;;;;;;6.68;3.40;;;9.60;99.90;;;;;;4999714;28;20415;-21
2023/12/15 01:34:45;;;;;;;7.80;3.80;;;9.60;99.90;;;;;;4960926;28;20036;-20
2023/12/15 01:37:11;;;;;;;11.68;4.70;;;9.60;99.90;;;;;;5006432;28;20415;-20
2023/12/15 01:39:36;;;;;;;8.53;4.23;;;9.60;99.90;;;;;;4999630;28;20030;-20
2023/12/15 01:42:02;;;;;;;7.13;3.80;;;9.60;99.90;;;;;;4981970;28;20065;-20
2023/12/15 01:44:28;;;;;;;8.57;4.60;;;9.60;99.90;;;;;;5010888;28;20488;-20
2023/12/15 01:46:54;;;;;;;7.40;3.83;;;9.60;99.90;;;;;;5004430;28;20037;-20
2023/12/15 01:49:20;;;;;;;6.75;3.63;;;9.70;99.90;;;;;;4997593;28;20028;-20
2023/12/15 01:51:45;;;;;;;8.37;4.50;;;8.80;99.90;;;;;;5011827;28;20037;-19
2023/12/15 01:54:11;;;;;;;10.13;3.85;;;9.60;99.90;;;;;;4996832;28;20033;-19
2023/12/15 01:56:37;;;;;;;8.00;3.53;;;9.60;99.90;;;;;;5001423;28;20052;-20
2023/12/15 01:59:02;;;;;;;7.80;3.85;;;9.60;99.90;;;;;;5012472;28;20172;-19
2023/12/15 02:01:28;;;;;;;8.17;4.27;;;9.60;99.90;;;;;;4992284;28;20057;-19
2023/12/15 02:03:54;;;;;;;8.32;3.65;;;9.60;99.90;;;;;;4990379;28;20029;-19
2023/12/15 02:06:20;;;;;;;8.40;4.25;;;9.60;99.90;;;;;;5011294;28;20037;-20
2023/12/15 02:08:47;;;;;;;7.67;3.77;;;9.60;99.90;;;;;;5006756;28;20037;-19
2023/12/15 02:11:13;;;;;;;8.52;3.67;;;9.60;99.90;;;;;;4992498;28;20018;-20
2023/12/15 02:13:39;;;;;;;8.37;3.83;;;9.70;99.90;;;;;;5011806;28;20028;-20
2023/12/15 02:16:05;;;;;;;9.50;3.67;;;9.60;99.90;;;;;;5008651;28;20531;-20
2023/12/15 02:18:31;;;;;;;8.50;4.50;;;9.70;99.90;;;;;;5013977;28;20471;-20
2023/12/15 02:20:56;;;;;;;7.83;3.77;;;9.70;99.90;;;;;;4991783;28;20116;-19
2023/12/15 02:23:22;;;;;;;8.48;4.40;;;9.70;99.90;;;;;;5011422;28;20029;-20
2023/12/15 02:25:48;;;;;;;8.23;4.03;;;9.70;99.90;;;;;;4979745;28;20103;-19
2023/12/15 02:28:13;;;;;;;9.93;4.60;;;9.70;99.90;;;;;;5019947;28;20459;-19
2023/12/15 02:30:39;;;;;;;10.60;4.90;;;9.60;99.90;;;;;;5030110;28;20434;-19
2023/12/15 02:33:05;;;;;;;7.95;4.07;;;9.70;99.90;;;;;;5005563;28;20680;-20
2023/12/15 02:35:31;;;;;;;8.53;4.17;;;9.70;99.90;;;;;;5015782;28;20452;-19
2023/12/15 02:37:56;;;;;;;8.77;3.72;;;9.70;99.90;;;;;;5026774;28;20982;-19
2023/12/15 02:40:22;;;;;;;10.57;4.77;;;9.70;99.90;;;;;;5020948;28;20025;-19
2023/12/15 02:42:48;;;;;;;8.35;4.22;;;9.70;99.90;;;;;;5018142;28;20505;-19
2023/12/15 02:45:14;;;;;;;8.93;4.25;;;9.70;99.90;;;;;;5026146;28;20033;-20
2023/12/15 02:47:40;;;;;;;10.77;4.80;;;9.70;99.90;;;;;;5028287;28;20503;-19
2023/12/15 02:50:06;;;;;;;10.15;4.65;;;9.70;99.90;;;;;;4996920;28;20102;-20
2023/12/15 02:52:32;;;;;;;7.47;4.20;;;9.70;99.90;;;;;;5032638;28;20132;-20
2023/12/15 02:54:57;;;;;;;8.17;4.20;;;9.80;99.90;;;;;;4972081;28;20686;-19
2023/12/15 02:57:23;;;;;;;9.15;4.28;;;9.70;99.90;;;;;;5013644;28;20784;-21
2023/12/15 02:59:49;;;;;;;8.90;4.27;;;9.80;99.90;;;;;;5017738;28;20120;-19
2023/12/15 03:02:15;;;;;;;9.95;4.22;;;9.80;99.90;;;;;;5018307;28;20659;-20
2023/12/15 03:04:40;;;;;;;7.93;3.50;;;9.80;99.90;;;;;;5020695;28;20041;-19
2023/12/15 03:07:07;;;;;;;11.32;4.65;;;9.80;99.90;;;;;;4996348;28;20041;-19
2023/12/15 03:09:33;;;;;;;11.55;4.93;;;9.80;99.90;;;;;;5012565;28;20100;-20
2023/12/15 03:11:59;;;;;;;9.97;4.50;;;9.80;99.90;;;;;;4997497;28;20236;-20
2023/12/15 03:14:24;;;;;;;9.38;4.18;;;9.80;99.90;;;;;;4988385;28;20060;-20
2023/12/15 03:16:50;;;;;;;9.23;3.90;;;9.80;99.90;;;;;;5026922;28;20048;-19
2023/12/15 03:19:16;;;;;;;11.70;4.63;;;9.80;99.90;;;;;;5026117;28;20025;-20
2023/12/15 03:21:42;;;;;;;8.25;4.13;;;9.80;99.90;;;;;;5006236;28;20033;-19
2023/12/15 03:24:07;;;;;;;7.80;3.70;;;9.80;99.90;;;;;;5021524;28;20338;-19
2023/12/15 03:26:33;;;;;;;10.65;4.63;;;9.90;99.90;;;;;;5020225;28;20057;-20
2023/12/15 03:28:59;;;;;;;9.90;4.20;;;9.90;99.90;;;;;;4997837;28;20210;-20
2023/12/15 03:31:25;;;;;;;9.55;4.32;;;9.90;99.90;;;;;;5019062;28;20034;-21
2023/12/15 03:33:51;;;;;;;9.23;4.50;;;9.90;99.90;;;;;;5020834;28;20520;-19
2023/12/15 03:36:16;;;;;;;8.67;4.20;;;9.90;99.90;;;;;;5027883;28;20283;-16
2023/12/15 03:38:42;;;;;;;9.60;4.10;;;9.90;99.90;;;;;;5001164;28;20498;-17
2023/12/15 03:41:08;;;;;;;10.20;4.20;;;9.90;99.90;;;;;;5008548;28;20219;-16
2023/12/15 03:43:35;;;;;;;7.80;3.65;;;10.00;99.90;;;;;;5029063;28;20035;-16
2023/12/15 03:46:01;;;;;;;9.50;4.20;;;10.00;99.90;;;;;;5003637;28;20627;-17
2023/12/15 03:48:27;;;;;;;10.57;4.18;;;9.50;99.90;;;;;;5025401;28;20025;-16
2023/12/15 03:50:54;;;;;;;8.95;4.28;;;10.00;99.90;;;;;;5008055;28;20032;-17
2023/12/15 03:53:20;;;;;;;8.53;3.80;;;10.00;99.90;;;;;;5015889;28;20036;-17
2023/12/15 03:55:46;;;;;;;11.32;4.50;;;10.00;99.90;;;;;;5023902;28;20043;-17
2023/12/15 03:58:12;;;;;;;11.18;4.72;;;10.00;99.90;;;;;;5008448;28;20162;-16
2023/12/15 04:00:37;;;;;;;10.37;4.33;;;10.00;99.90;;;;;;5011970;28;20040;-17
2023/12/15 04:03:03;;;;;;;9.10;4.25;;;10.10;99.90;;;;;;5017317;28;20169;-17
2023/12/15 04:05:29;;;;;;;9.87;4.90;;;10.10;99.90;;;;;;4991635;28;20494;-16
2023/12/15 04:07:54;;;;;;;11.27;4.90;;;10.10;99.90;;;;;;5025280;28;20031;-16
2023/12/15 04:10:20;;;;;;;10.30;4.60;;;10.00;99.90;;;;;;4981820;28;20055;-16
2023/12/15 04:12:46;;;;;;;12.00;4.63;;;10.10;99.90;;;;;;5019950;28;20064;-18
2023/12/15 04:15:12;;;;;;;10.83;4.57;;;10.10;99.90;;;;;;5027436;28;20287;-17
2023/12/15 04:17:38;;;;;;;9.23;4.22;;;10.10;99.90;;;;;;4987917;28;20645;-18
2023/12/15 04:20:07;;;;;;;9.23;4.22;;;10.10;99.90;;;;;;5021336;28;20040;-17
2023/12/15 04:22:32;;;;;;;11.65;5.32;;;10.10;99.90;;;;;;5002688;28;20549;-17
2023/12/15 04:24:58;;;;;;;10.67;5.00;;;10.10;99.90;;;;;;5007499;28;20106;-16
2023/12/15 04:27:24;;;;;;;12.60;4.82;;;10.10;99.90;;;;;;5016586;28;20128;-16
2023/12/15 04:29:50;;;;;;;11.80;5.00;;;10.10;99.90;;;;;;4997789;28;20029;-18
2023/12/15 04:32:16;;;;;;;10.57;4.82;;;10.10;99.90;;;;;;5027400;28;20348;-17
2023/12/15 04:34:41;;;;;;;11.02;4.45;;;10.10;99.90;;;;;;5016568;28;20041;-18
2023/12/15 04:37:07;;;;;;;12.83;5.30;;;10.10;99.90;;;;;;5022317;28;20195;-17
2023/12/15 04:39:33;;;;;;;11.70;5.17;;;10.10;99.90;;;;;;5008878;28;20051;-17
2023/12/15 04:41:58;;;;;;;10.82;4.85;;;10.20;99.90;;;;;;5016492;28;20028;-17
2023/12/15 04:44:24;;;;;;;11.13;4.95;;;10.20;99.90;;;;;;5013071;28;20252;-17
2023/12/15 04:46:55;;;;;;;13.67;4.70;;;10.20;99.90;;;;;;5027368;28;20033;-20
2023/12/15 04:49:21;;;;;;;13.48;5.35;;;10.20;99.90;;;;;;5012302;28;20429;-20
2023/12/15 04:51:47;;;;;;;12.00;5.55;;;10.20;99.90;;;;;;4992589;28;20065;-20
2023/12/15 04:54:13;;;;;;;13.43;5.43;;;10.20;99.90;;;;;;5013052;28;20619;-20
2023/12/15 04:56:39;;;;;;;13.87;5.90;;;10.20;99.90;;;;;;5026366;28;20294;-20
2023/12/15 04:59:05;;;;;;;12.63;5.55;;;10.20;99.90;;;;;;5000670;28;20919;-19
2023/12/15 05:01:30;;;;;;;13.00;4.90;;;10.20;99.90;;;;;;4994424;28;20411;-20
2023/12/15 05:03:56;;;;;;;12.55;5.22;;;10.20;99.90;;;;;;5017287;28;20489;-20
2023/12/15 05:06:25;;;;;;;11.93;4.83;;;10.20;99.90;;;;;;5011283;28;20478;-20
2023/12/15 05:08:52;;;;;;;13.43;5.55;;;10.20;99.90;;;;;;5025519;28;20071;-21
2023/12/15 05:11:18;;;;;;;13.15;5.43;;;10.20;99.90;;;;;;4992651;28;20029;-20
2023/12/15 05:13:44;;;;;;;12.50;5.38;;;10.20;99.90;;;;;;5002077;28;20025;-19
2023/12/15 05:16:09;;;;;;;13.50;5.10;;;10.20;99.90;;;;;;5028243;28;20474;-20
2023/12/15 05:18:36;;;;;;;14.07;5.40;;;10.20;99.90;;;;;;5028110;28;20410;-20
2023/12/15 05:21:02;;;;;;;11.00;4.68;;;10.20;99.90;;;;;;4991908;28;20516;-20
2023/12/15 05:23:28;;;;;;;14.30;6.03;;;10.30;99.90;;;;;;5029845;28;20211;-20
2023/12/15 05:25:54;;;;;;;11.18;5.28;;;10.20;99.90;;;;;;5016144;28;20033;-20
2023/12/15 05:28:20;;;;;;;12.52;5.88;;;10.20;99.90;;;;;;5017611;28;20833;-20
2023/12/15 05:30:46;;;;;;;12.07;5.43;;;10.20;99.90;;;;;;5017494;28;20052;-19
2023/12/15 05:33:11;;;;;;;13.13;5.80;;;10.20;99.90;;;;;;5027652;28;20449;-20
2023/12/15 05:35:37;;;;;;;12.73;5.00;;;10.20;99.90;;;;;;5002431;28;20031;-20
2023/12/15 05:38:03;;;;;;;11.17;4.87;;;10.20;99.90;;;;;;5019604;28;20272;-20
2023/12/15 05:40:29;;;;;;;14.90;6.03;;;10.20;99.90;;;;;;5031299;28;20170;-21
2023/12/15 05:42:55;;;;;;;11.32;5.20;;;10.20;99.90;;;;;;4983779;28;20071;-20
2023/12/15 05:45:21;;;;;;;13.63;5.73;;;10.20;99.90;;;;;;5018101;28;20120;-20
2023/12/15 05:47:47;;;;;;;12.98;5.22;;;10.20;99.90;;;;;;5035486;28;20025;-21
2023/12/15 05:50:13;;;;;;;11.90;4.72;;;10.10;99.90;;;;;;5028539;28;20029;-20
2023/12/15 05:52:39;;;;;;;10.63;4.90;;;10.10;99.90;;;;;;5023106;28;20021;-20
2023/12/15 05:55:06;;;;;;;12.98;5.38;;;10.10;99.90;;;;;;5014376;28;20322;-20
2023/12/15 05:57:31;;;;;;;12.55;5.35;;;9.60;99.90;;;;;;5017482;28;25438;-17
2023/12/15 05:59:57;;;;;;;12.80;4.73;;;10.10;99.90;;;;;;5000160;28;20148;-18
2023/12/15 06:02:23;;;;;;;12.25;5.18;;;10.10;99.90;;;;;;5027679;28;20021;-17
2023/12/15 06:04:49;;;;;;;11.88;5.40;;;10.10;99.90;;;;;;5010318;28;20029;-18
2023/12/15 06:07:15;;;;;;;14.07;5.37;;;10.10;99.90;;;;;;5017002;28;20052;-18
2023/12/15 06:09:42;;;;;;;13.18;5.35;;;10.10;99.90;;;;;;5018546;28;20022;-17
2023/12/15 06:12:09;;;;;;;12.23;4.95;;;10.10;99.90;;;;;;5016452;28;20028;-16
2023/12/15 06:14:38;;;;;;;11.13;5.27;;;10.00;99.90;;;;;;4994216;28;20653;-18
2023/12/15 06:17:08;;;;;;;17.98;5.53;;;10.00;99.90;;;;;;4978507;28;20037;-17
2023/12/15 06:19:38;;;;;;;12.73;5.38;;;10.00;99.90;;;;;;4997595;28;20100;-17
2023/12/15 06:22:03;;;;;;;13.55;5.60;;;10.00;99.90;;;;;;5016729;28;20033;-17
2023/12/15 06:24:29;;;;;;;14.80;6.27;;;10.00;99.90;;;;;;5019972;28;20068;-16
2023/12/15 06:26:55;;;;;;;13.50;5.53;;;10.00;99.90;;;;;;5020578;28;20060;-17
2023/12/15 06:29:20;;;;;;;13.80;6.33;;;10.00;99.90;;;;;;5000445;28;20085;-17
2023/12/15 06:31:47;;;;;;;12.73;5.07;;;10.00;99.90;;;;;;5013804;28;20454;-18
2023/12/15 06:34:13;;;;;;;15.52;6.18;;;10.00;99.90;;;;;;5028652;28;20502;-17
2023/12/15 06:36:39;;;;;;;13.73;5.40;;;10.00;99.90;;;;;;5031099;28;20029;-18
2023/12/15 06:39:05;;;;;;;13.50;5.38;;;10.00;99.90;;;;;;5005427;28;22685;-17
2023/12/15 06:41:31;;;;;;;16.80;5.60;;;9.90;99.90;;;;;;5022228;28;20036;-17
2023/12/15 06:43:57;;;;;;;12.03;5.07;;;9.90;99.90;;;;;;5001143;28;20024;-17
2023/12/15 06:46:22;;;;;;;12.68;5.40;;;9.90;99.90;;;;;;4972309;28;20033;-17
2023/12/15 06:48:48;;;;;;;13.30;5.53;;;9.90;99.90;;;;;;5018963;28;21091;-18
2023/12/15 06:51:14;;;;;;;12.82;5.45;;;9.80;99.90;;;;;;5024768;28;20425;-16
2023/12/15 06:53:40;;;;;;;12.17;5.60;;;9.80;99.90;;;;;;5030938;28;20546;-18
2023/12/15 06:56:06;;;;;;;13.02;5.55;;;9.80;99.90;;;;;;5014769;28;20326;-18
2023/12/15 06:58:32;;;;;;;14.18;6.10;;;9.70;99.90;;;;;;4997682;28;20626;-17
2023/12/15 07:00:58;;;;;;;13.80;5.32;;;9.70;99.90;;;;;;4978067;28;20046;-18
2023/12/15 07:03:24;;;;;;;14.80;5.67;;;9.70;99.90;;;;;;4990327;28;20028;-17
2023/12/15 07:05:50;;;;;;;14.93;5.60;;;9.60;99.90;;;;;;5022806;28;20111;-18
2023/12/15 07:08:16;;;;;;;11.82;4.88;;;9.60;99.90;;;;;;5005391;28;20036;-20
2023/12/15 07:10:41;;;;;;;11.40;5.03;;;9.60;99.90;;;;;;5027318;28;20037;-20
2023/12/15 07:13:08;;;;;;;12.25;5.47;;;9.60;99.90;;;;;;5025339;28;20078;-20
2023/12/15 07:15:33;;;;;;;14.25;5.40;;;9.60;99.90;;;;;;4999442;28;20116;-20
2023/12/15 07:18:00;;;;;;;12.93;4.90;;;9.60;99.90;;;;;;4986775;28;20277;-20
2023/12/15 07:20:25;;;;;;;14.60;5.00;;;9.50;99.90;;;;;;5031635;28;20037;-20
2023/12/15 07:22:51;;;;;;;15.10;6.35;;;9.60;99.90;;;;;;5001260;28;20107;-20
2023/12/15 07:25:18;;;;;;;13.17;5.63;;;9.60;99.90;;;;;;5027281;28;20485;-20
2023/12/15 07:27:44;;;;;;;14.25;6.25;;;9.60;99.90;;;;;;5029858;28;21814;-20
2023/12/15 07:30:11;;;;;;;14.32;5.95;;;9.60;99.90;;;;;;5026556;28;20021;-20
2023/12/15 07:32:37;;;;;;;13.43;5.38;;;9.60;99.90;;;;;;5012643;28;20028;-20
2023/12/15 07:35:04;;;;;;;13.33;5.43;;;9.60;99.90;;;;;;4994923;28;20617;-20
2023/12/15 07:37:29;;;;;;;18.33;6.85;;;9.60;99.90;;;;;;5003067;28;20043;-20
2023/12/15 07:39:55;;;;;;;15.27;6.72;;;9.70;99.90;;;;;;5015272;28;20025;-20
2023/12/15 07:42:21;;;;;;;14.33;5.97;;;9.70;99.90;;;;;;5011529;28;20075;-21
2023/12/15 07:44:47;;;;;;;15.55;6.03;;;9.70;99.90;;;;;;5007560;28;20103;-20
2023/12/15 07:47:13;;;;;;;14.10;5.77;;;9.70;99.90;;;;;;5011574;28;20568;-21
2023/12/15 07:49:38;;;;;;;13.05;5.85;;;9.70;99.90;;;;;;5000183;28;20025;-20
2023/12/15 07:52:05;;;;;;;15.75;6.13;;;8.80;99.90;;;;;;5012485;28;20585;-21
2023/12/15 07:54:30;;;;;;;16.23;6.83;;;9.70;99.90;;;;;;4999649;28;20541;-20
2023/12/15 07:56:57;;;;;;;15.27;6.30;;;9.70;99.90;;;;;;5013813;28;20032;-20
2023/12/15 07:59:22;;;;;;;15.48;6.20;;;9.80;99.90;;;;;;5022047;28;20029;-20
2023/12/15 08:01:50;;;;;;;15.73;6.53;;;9.80;99.90;;;;;;5027761;28;20056;-20
2023/12/15 08:04:16;;;;;;;17.67;6.80;;;9.80;99.90;;;;;;5006175;28;20029;-20
2023/12/15 08:06:42;;;;;;;11.30;5.43;;;9.80;99.90;;;;;;4998371;28;20074;-21
2023/12/15 08:09:08;;;;;;;15.30;5.75;;;9.90;99.90;;;;;;5023585;28;20355;-21
2023/12/15 08:11:34;;;;;;;12.23;5.50;;;9.90;99.90;;;;;;5011613;28;20462;-20
2023/12/15 08:13:59;;;;;;;10.88;4.70;;;9.90;99.90;;;;;;5020735;28;20025;-20
2023/12/15 08:16:28;;;;;;;12.97;4.60;;;10.00;99.90;;;;;;5023077;28;20445;-20
2023/12/15 08:18:54;;;;;;;12.95;5.57;;;10.00;99.90;;;;;;5008346;28;20112;-21
2023/12/15 08:21:20;;;;;;;11.03;4.80;;;9.90;99.90;;;;;;5014392;28;20028;-20
2023/12/15 08:23:46;;;;;;;11.07;4.80;;;10.00;99.90;;;;;;5012194;28;20489;-20
2023/12/15 08:26:23;;;;;;;12.20;5.07;;;10.00;99.90;;;;;;5019158;28;20041;-20
2023/12/15 08:28:49;;;;;;;9.73;4.60;;;10.10;99.90;;;;;;5022149;28;20610;-20
2023/12/15 08:31:15;;;;;;;9.52;4.55;;;10.10;99.90;;;;;;5026462;28;20079;-21
2023/12/15 08:33:42;;;;;;;10.23;4.25;;;10.10;99.90;;;;;;4980457;28;20034;-21
2023/12/15 08:36:09;;;;;;;11.32;4.47;;;10.10;99.90;;;;;;5012290;28;20033;-21
2023/12/15 08:38:36;;;;;;;8.75;4.25;;;10.20;99.90;;;;;;5010630;28;20505;-20
2023/12/15 08:41:02;;;;;;;10.90;4.37;;;10.20;99.90;;;;;;5015599;28;20037;-20
2023/12/15 08:43:28;;;;;;;9.07;4.00;;;10.20;99.90;;;;;;5022860;28;20029;-20
2023/12/15 08:45:54;;;;;;;10.27;4.40;;;10.20;99.90;;;;;;5019043;28;20102;-21
2023/12/15 08:48:20;;;;;;;8.13;3.70;;;10.20;99.90;;;;;;4990620;28;20042;-20
2023/12/15 08:50:46;;;;;;;8.27;3.55;;;10.30;99.90;;;;;;4960608;28;20099;-21
2023/12/15 08:53:16;;;;;;;9.35;4.03;;;10.20;99.90;;;;;;5026084;28;20077;-21
2023/12/15 08:55:42;;;;;;;9.90;3.57;;;10.30;99.90;;;;;;5025288;28;20268;-21
2023/12/15 08:58:09;;;;;;;9.77;3.83;;;10.30;99.90;;;;;;4996158;28;20119;-20
2023/12/15 09:00:36;;;;;;;10.05;4.72;;;10.30;99.90;;;;;;5001234;28;20484;-21
2023/12/15 09:03:02;;;;;;;11.05;4.90;;;10.40;99.90;;;;;;5025928;28;20041;-20
2023/12/15 09:05:28;;;;;;;11.33;4.90;;;10.40;99.90;;;;;;4999709;28;20033;-20
2023/12/15 09:07:54;;;;;;;11.50;5.10;;;10.40;99.90;;;;;;5020274;28;20069;-20
2023/12/15 09:10:21;;;;;;;10.35;4.50;;;10.50;99.90;;;;;;4990885;28;20116;-20
2023/12/15 09:12:47;;;;;;;9.25;4.40;;;10.50;99.90;;;;;;5020452;28;20029;-20
2023/12/15 09:15:13;;;;;;;11.13;4.90;;;10.50;99.90;;;;;;5026222;28;20029;-21
2023/12/15 09:17:42;;;;;;;11.37;4.30;;;10.50;99.90;;;;;;4999175;28;20033;-21
2023/12/15 09:20:08;;;;;;;9.30;4.05;;;10.60;99.90;;;;;;4991944;28;20043;-20
2023/12/15 09:22:34;;;;;;;9.98;4.28;;;10.60;99.90;;;;;;4994528;28;20041;-21
2023/12/15 09:25:00;;;;;;;13.13;5.07;;;10.60;99.90;;;;;;5025487;28;20056;-21
2023/12/15 09:27:25;;;;;;;11.43;4.60;;;10.60;99.90;;;;;;5017553;28;20037;-19
2023/12/15 09:29:51;;;;;;;14.77;4.73;;;10.60;99.90;;;;;;5022670;28;20254;-18
2023/12/15 09:32:17;;;;;;;15.55;5.68;;;10.70;99.90;;;;;;5018090;28;20025;-19
2023/12/15 09:34:43;;;;;;;15.68;5.75;;;10.70;99.90;;;;;;5006250;28;20197;-18
2023/12/15 09:37:09;;;;;;;16.07;5.40;;;10.70;99.90;;;;;;5014181;28;20060;-18
2023/12/15 09:39:35;;;;;;;12.35;4.60;;;10.70;99.90;;;;;;5021882;28;20029;-18
2023/12/15 09:42:00;;;;;;;11.07;4.20;;;10.70;99.90;;;;;;5010526;28;20048;-19
2023/12/15 09:44:27;;;;;;;8.00;3.78;;;10.70;99.90;;;;;;5013430;28;20517;-19
2023/12/15 09:46:53;;;;;;;10.55;3.97;;;10.80;99.90;;;;;;5016601;28;22651;-18
2023/12/15 09:49:24;;;;;;;9.82;3.40;;;10.80;99.90;;;;;;5009488;28;20040;-18
2023/12/15 09:51:50;;;;;;;11.27;3.53;;;10.90;99.90;;;;;;5012613;28;20240;-19
2023/12/15 09:54:16;;;;;;;6.13;2.78;;;10.90;99.90;;;;;;4982563;28;20021;-19
2023/12/15 09:56:43;;;;;;;9.20;3.35;;;11.00;99.90;;;;;;5014768;28;20521;-18
2023/12/15 09:59:09;;;;;;;7.70;3.30;;;11.00;99.90;;;;;;5020202;28;20519;-18
2023/12/15 10:01:35;;;;;;;7.28;3.20;;;9.70;99.90;;;;;;5024707;28;20029;-18
2023/12/15 10:04:01;;;;;;;6.20;2.57;;;11.10;99.90;;;;;;4995479;28;20802;-18
2023/12/15 10:06:27;;;;;;;6.22;2.72;;;11.20;99.90;;;;;;5015600;28;20033;-18
2023/12/15 10:08:53;;;;;;;5.63;2.25;;;11.20;99.90;;;;;;5003233;28;20675;-18
2023/12/15 10:11:20;;;;;;;6.28;2.75;;;11.20;99.90;;;;;;5003165;28;20708;-18
2023/12/15 10:13:46;;;;;;;7.33;3.30;;;11.30;99.90;;;;;;5021546;28;20111;-18
2023/12/15 10:16:11;;;;;;;6.72;3.15;;;11.30;99.90;;;;;;5021676;28;20028;-19
2023/12/15 10:18:38;;;;;;;5.20;2.70;;;11.30;99.90;;;;;;5011166;28;20276;-18
2023/12/15 10:21:05;;;;;;;4.72;2.28;;;11.30;99.90;;;;;;4999564;28;20440;-19
2023/12/15 10:23:31;;;;;;;5.88;2.13;;;11.30;99.90;;;;;;5013897;28;20613;-18
2023/12/15 10:26:05;;;;;;;5.13;2.08;;;11.30;99.90;;;;;;5007934;28;20457;-18
2023/12/15 10:28:36;;;;;;;4.88;2.13;;;11.30;99.90;;;;;;5016827;28;20140;-19
2023/12/15 10:31:02;;;;;;;5.37;2.30;;;11.30;99.90;;;;;;5002587;28;20033;-19
2023/12/15 10:33:29;;;;;;;4.65;2.28;;;11.30;99.90;;;;;;4997943;28;20384;-19
2023/12/15 10:35:57;;;;;;;4.95;2.03;;;11.30;99.90;;;;;;5016391;28;20141;-18
2023/12/15 10:38:23;;;;;;;4.93;2.00;;;11.30;99.90;;;;;;5013738;28;20043;-19
2023/12/15 10:40:49;;;;;;;3.25;1.80;;;11.30;99.90;;;;;;4997619;28;20036;-18
2023/12/15 10:43:16;;;;;;;4.73;1.93;;;11.30;99.90;;;;;;5021212;28;20028;-19
2023/12/15 10:45:42;;;;;;;6.15;2.05;;;11.30;99.90;;;;;;5012758;28;20949;-18
2023/12/15 10:48:10;;;;;;;5.53;1.80;;;11.30;99.90;;;;;;5017264;28;20074;-19
2023/12/15 10:50:41;;;;;;;5.47;2.20;;;11.40;99.90;;;;;;4999493;28;20068;-19
2023/12/15 10:53:08;;;;;;;5.37;2.07;;;11.40;99.90;;;;;;5026052;28;20013;-18
2023/12/15 10:55:34;;;;;;;4.55;1.98;;;11.40;99.90;;;;;;5001180;28;20106;-19
2023/12/15 10:58:01;;;;;;;3.80;1.80;;;11.50;99.90;;;;;;5016661;28;20060;-19
2023/12/15 11:00:27;;;;;;;3.72;2.05;;;11.50;99.90;;;;;;5017285;28;20025;-20
2023/12/15 11:02:54;;;;;;;3.38;1.70;;;11.50;99.90;;;;;;5008217;28;20037;-19
2023/12/15 11:05:20;;;;;;;4.70;1.80;;;11.50;99.90;;;;;;5008643;28;20082;-19
2023/12/15 11:07:49;;;;;;;4.20;1.92;;;11.50;99.90;;;;;;4992613;28;20130;-19
2023/12/15 11:10:16;;;;;;;4.35;2.08;;;11.50;99.90;;;;;;5016084;28;20052;-20
2023/12/15 11:12:42;;;;;;;3.78;1.92;;;11.60;99.90;;;;;;4987895;28;20341;-19
2023/12/15 11:15:10;;;;;;;5.53;2.17;;;11.60;99.90;;;;;;4984453;28;20503;-19
2023/12/15 11:17:48;;;;;;;5.43;1.67;;;11.60;99.90;;;;;;5003440;28;20398;-19
2023/12/15 11:20:26;;;;;;;3.70;1.48;;;11.60;99.90;;;;;;5031477;28;20127;-20
2023/12/15 11:23:12;;;;;;;4.57;1.65;;;11.60;99.90;;;;;;5011287;28;20120;-19
2023/12/15 11:25:49;;;;;;;5.60;1.70;;;11.60;99.90;;;;;;4993982;28;20360;-19
2023/12/15 11:28:17;;;;;;;3.50;1.88;;;11.60;99.90;;;;;;5013024;28;20040;-19
2023/12/15 11:30:48;;;;;;;3.93;1.67;;;11.60;99.90;;;;;;5018325;28;20445;-20
2023/12/15 11:33:26;;;;;;;5.03;1.58;;;11.60;99.90;;;;;;5015007;28;20954;-19
2023/12/15 11:36:03;;;;;;;18.98;3.20;;;11.60;99.90;;;;;;5008065;28;20451;-20
2023/12/15 11:38:29;;;;;;;4.50;1.60;;;11.60;99.90;;;;;;5012443;28;20057;-19
2023/12/15 11:40:56;;;;;;;5.28;1.70;;;11.60;99.90;;;;;;5011201;28;20052;-20
2023/12/15 11:43:25;;;;;;;5.07;1.90;;;11.70;99.90;;;;;;5010251;28;20025;-19
2023/12/15 11:45:55;;;;;;;4.55;1.67;;;11.70;99.90;;;;;;4986407;28;20033;-20
2023/12/15 11:48:24;;;;;;;6.22;2.00;;;11.70;99.90;;;;;;5016622;28;20509;-19
2023/12/15 11:50:50;;;;;;;5.45;2.33;;;11.70;99.90;;;;;;5026264;28;20064;-20
2023/12/15 11:53:16;;;;;;;6.00;2.37;;;11.70;99.90;;;;;;5012260;28;20326;-20
2023/12/15 11:55:43;;;;;;;5.80;2.00;;;11.70;99.90;;;;;;4995927;28;20136;-20
2023/12/15 11:58:09;;;;;;;6.68;2.72;;;11.70;99.90;;;;;;5016720;28;20044;-19
2023/12/15 12:00:35;;;;;;;4.88;1.85;;;11.70;99.90;;;;;;5015340;28;20026;-20
2023/12/15 12:03:03;;;;;;;7.30;2.60;;;11.80;99.90;;;;;;4998980;28;20126;-20
2023/12/15 12:05:30;;;;;;;7.10;2.50;;;11.70;99.90;;;;;;5019531;28;20155;-20
2023/12/15 12:08:00;;;;;;;5.32;2.55;;;11.80;99.90;;;;;;5024374;28;20032;-20
2023/12/15 12:10:32;;;;;;;5.13;1.95;;;11.80;99.90;;;;;;5013803;28;20698;-20
2023/12/15 12:12:59;;;;;;;4.35;1.95;;;11.80;99.90;;;;;;5014337;28;20854;-20
2023/12/15 12:15:25;;;;;;;6.10;2.28;;;11.90;99.90;;;;;;5015747;28;21209;-19
2023/12/15 12:17:52;;;;;;;4.50;1.93;;;11.90;99.90;;;;;;5016083;28;20033;-19
2023/12/15 12:20:18;;;;;;;4.78;1.73;;;11.90;99.90;;;;;;5012289;28;20550;-20
2023/12/15 12:22:45;;;;;;;4.47;1.52;;;11.90;99.90;;;;;;5027611;28;20078;-20
2023/12/15 12:25:13;;;;;;;4.35;1.90;;;11.90;99.90;;;;;;5002870;28;20025;-20
2023/12/15 12:27:39;;;;;;;5.00;1.90;;;11.90;99.90;;;;;;4997335;28;20022;-19
2023/12/15 12:30:14;;;;;;;4.90;1.45;;;11.90;99.90;;;;;;5013127;28;20037;-20
2023/12/15 12:32:40;;;;;;;3.92;1.45;;;11.90;99.90;;;;;;4999923;28;20456;-20
2023/12/15 12:35:07;;;;;;;5.05;1.70;;;11.90;99.90;;;;;;4986167;28;20029;-20
2023/12/15 12:37:33;;;;;;;4.00;1.33;;;11.90;99.90;;;;;;5026611;28;20033;-19
2023/12/15 12:40:09;;;;;;;2.90;1.30;;;11.90;99.90;;;;;;5011587;28;20033;-20
2023/12/15 12:42:35;;;;;;;3.90;1.50;;;11.90;99.90;;;;;;5017954;28;20426;-19